Weather reports worldwide

Advertisment
Berlin/Tempelhof, Germany (10384): temperature & dewpoint: 06.11.2019 17:00:00 - 12.11.2019 17:00:00 (CET)Berlin/Tempelhof, Germany (10384): temperature 5cm & temperature -5cm: 06.11.2019 17:00:00 - 12.11.2019 17:00:00 (CET)Berlin/Tempelhof, Germany (10384): temperature -20cm & temperature -100cm: 06.11.2019 17:00:00 - 12.11.2019 17:00:00 (CET)Berlin/Tempelhof, Germany (10384): wind speed & gusts: 06.11.2019 17:00:00 - 12.11.2019 17:00:00 (CET)Berlin/Tempelhof, Germany (10384): wind direction: 06.11.2019 17:00:00 - 12.11.2019 17:00:00 (CET)Berlin/Tempelhof, Germany (10384): reduced air pressure: 06.11.2019 17:00:00 - 12.11.2019 17:00:00 (CET)Berlin/Tempelhof, Germany (10384): sunshine duration: 06.11.2019 17:00:00 - 12.11.2019 17:00:00 (CET)Berlin/Tempelhof, Germany (10384): precipitation: 06.11.2019 17:00:00 - 12.11.2019 17:00:00 (CET)
Date & Time tt [°C] td [°C] tt 5cm [°C] tt -5cm [°C] tt -20cm [°C] tt -100cm [°C] ff [km/h] ff [kn] fx [km/h] fx [kn] dd ppp [hPa] sd [min] rr [mm]
12.11.2019 17:00:00 6,2 2,7 4,2 6,2 7,2 10,8 11 6 18 10 SSE 1006,2 0 0,0
12.11.2019 16:00:00 7,0 2,7 5,4 6,6 7,1 10,8 8 5 19 10 SSE 1006,4 0 0,0
12.11.2019 15:00:00 7,2 2,7 6,2 6,8 7,0 10,9 10 5 22 12 S 1006,8 2 0,0
12.11.2019 14:00:00 7,3 2,6 7,2 6,9 6,9 10,9 9 5 23 12 S 1006,1 26 0,0
12.11.2019 13:00:00 6,3 2,5 6,5 6,2 6,7 10,9 12 6 21 12 S 1006,8 0 0,0
12.11.2019 12:00:00 5,9 2,3 6,0 5,9 6,6 10,9 10 5 24 13 S 1007,0 0 0,0
12.11.2019 11:00:00 5,5 2,0 5,8 5,4 6,6 10,9 12 7 22 12 S 1007,4 0 0,0
12.11.2019 10:00:00 4,6 1,6 4,4 4,9 6,5 10,9 11 6 22 12 S 1007,4 0 0,0
12.11.2019 09:00:00 3,9 1,1 3,2 4,6 6,5 10,9 11 6 19 10 S 1007,3 0 0,0
12.11.2019 08:00:00 3,3 0,6 2,2 4,5 6,6 10,9 9 5 18 10 S 1006,9 0 0,0
12.11.2019 07:00:00 3,3 0,2 2,5 4,5 6,6 10,9 10 6 17 9 S 1006,4 0 0,0
12.11.2019 06:00:00 2,8 0,0 2,1 4,4 6,6 10,9 8 5 16 9 S 1006,2 0 0,0
12.11.2019 05:00:00 2,1 -0,1 1,6 4,3 6,6 10,9 8 4 13 7 S 1006,1 0 0,0
12.11.2019 04:00:00 1,8 -0,3 1,3 4,2 6,7 11,0 6 3 13 7 SSE 1005,9 0 0,0
12.11.2019 03:00:00 1,1 -0,5 0,2 4,0 6,8 11,0 8 4 16 9 S 1006,4 0 0,0
12.11.2019 02:00:00 1,0 -0,5 -0,4 4,1 6,9 11,0 10 5 16 9 SSE 1006,7 0 0,0
12.11.2019 01:00:00 1,2 -0,3 -0,7 4,2 7,0 11,0 8 4 19 10 S 1006,6 0 0,0
12.11.2019 00:00:00 1,5 -0,1 0,1 4,3 7,2 11,0 14 8 21 11 SSE 1006,8 0 0,0
11.11.2019 23:00:00 1,7 0,0 -0,5 4,5 7,3 11,0 11 6 21 11 SSE 1007,4 0 0,0
11.11.2019 22:00:00 2,2 0,1 0,3 4,8 7,5 11,0 13 7 23 12 SSE 1007,7 0 0,0
11.11.2019 21:00:00 2,5 0,1 0,6 5,0 7,6 11,0 14 8 27 15 SSE 1008,1 0 0,0
11.11.2019 20:00:00 3,2 0,2 1,2 5,4 7,7 11,0 16 9 30 16 S 1008,6 0 0,0
11.11.2019 19:00:00 4,1 0,4 2,2 5,8 7,9 11,0 13 7 26 14 SSE 1008,6 0 0,0
11.11.2019 18:00:00 5,0 0,5 2,4 6,2 8,0 11,1 13 7 24 13 SSE 1008,8 0 0,0
11.11.2019 17:00:00 5,3 1,5 2,8 6,9 8,1 11,1 13 7 19 10 ESE 1009,0 0 0,0
11.11.2019 16:00:00 6,4 1,6 4,2 7,8 8,1 11,1 13 7 22 12 ESE 1009,7 40 0,0
11.11.2019 15:00:00 7,0 1,6 7,0 8,4 8,0 11,1 13 7 22 12 SE 1010,4 60 0,0
11.11.2019 14:00:00 6,7 2,0 6,6 9,0 7,8 11,1 15 8 22 12 SE 1011,0 60 0,0
11.11.2019 13:00:00 6,2 2,9 8,2 8,3 7,6 11,1 13 7 21 11 SE 1011,6 59 0,0
11.11.2019 12:00:00 4,2 2,1 6,0 6,8 7,5 11,1 10 5 20 11 SSE 1012,4 31 0,0
11.11.2019 11:00:00 2,2 1,5 3,5 6,0 7,5 11,1 12 7 21 12 SSW 1013,5 0 0,0
11.11.2019 10:00:00 1,4 1,3 2,4 5,7 7,6 11,1 11 6 19 10 SSE 1013,8 0 0,0
11.11.2019 09:00:00 0,6 0,5 1,4 5,5 7,6 11,1 13 7 20 11 SSE 1014,3 0 0,0
11.11.2019 08:00:00 0,5 0,4 0,9 5,6 7,7 11,1 8 4 16 8 SSE 1015,0 0 0,0
11.11.2019 07:00:00 0,9 0,9 1,2 5,7 7,8 11,1 6 4 14 8 SSE 1014,9 0 0,0
11.11.2019 06:00:00 0,7 0,6 1,1 5,9 7,8 11,2 10 5 15 8 SSE 1014,8 0 0,0
11.11.2019 05:00:00 1,2 1,1 1,5 6,0 7,9 11,2 7 4 11 6 ESE 1015,4 0 0,0
11.11.2019 04:00:00 1,2 1,2 1,6 6,1 8,0 11,2 8 4 10 6 E 1015,3 0 0,0
11.11.2019 03:00:00 1,3 1,3 1,8 6,3 8,0 11,2 6 3 10 6 SSE 1015,5 0 0,0
11.11.2019 02:00:00 1,9 1,9 2,2 6,4 8,1 11,2 9 5 14 8 SSE 1015,9 0 0,0
11.11.2019 01:00:00 2,4 2,4 2,6 6,6 8,2 11,2 9 5 14 7 ESE 1016,0 0 0,0
11.11.2019 00:00:00 2,9 2,8 3,1 6,8 8,2 11,2 8 4 12 7 SE 1016,4 0 0,0
10.11.2019 23:00:00 4,1 3,9 4,1 6,9 8,3 11,2 5 3 8 4 ESE 1016,2 0 0,0
10.11.2019 22:00:00 4,3 3,9 4,3 6,8 8,3 11,2 3 2 8 4 N 1016,2 0 0,0
10.11.2019 21:00:00 4,6 4,3 4,3 6,8 8,4 11,2 3 2 9 5 E 1016,1 0 0,0
10.11.2019 20:00:00 4,2 4,0 3,4 6,6 8,6 11,2 7 4 10 5 ENE 1016,0 0 0,0
10.11.2019 19:00:00 3,1 2,5 -1,5 6,9 8,8 11,2 8 4 9 5 N 1015,9 0 0,0
10.11.2019 18:00:00 5,6 4,1 -1,5 7,6 8,9 11,2 3 2 7 4 N 1015,8 0 0,0
10.11.2019 17:00:00 7,0 3,6 0,9 8,7 9,0 11,2 5 3 10 5 W 1015,3 0 0,0
10.11.2019 16:00:00 8,1 3,5 5,2 10,0 8,9 11,2 7 4 12 7 SW 1014,9 22 0,0
10.11.2019 15:00:00 9,2 3,5 9,4 10,6 8,7 11,3 3 2 10 6 SSW 1014,6 33 0,0
10.11.2019 14:00:00 9,4 3,6 9,7 11,5 8,3 11,3 8 4 16 9 SW 1014,2 60 0,0
10.11.2019 13:00:00 8,9 4,3 9,9 10,2 8,0 11,3 3 2 10 5 WNW 1014,0 57 0,0
10.11.2019 12:00:00 7,5 4,1 9,5 8,7 7,8 11,3 4 2 6 4 N 1013,8 60 0,0
10.11.2019 11:00:00 6,4 4,3 8,0 6,9 7,7 11,3 4 2 10 5 N 1013,9 60 0,0
10.11.2019 10:00:00 5,0 4,1 5,7 5,6 7,8 11,3 4 2 9 5 NW 1013,5 60 0,0
10.11.2019 09:00:00 3,9 3,4 2,7 5,4 7,9 11,3 7 4 14 8 SW 1013,2 27 0,0
10.11.2019 08:00:00 3,0 2,6 -0,4 5,5 8,0 11,3 4 2 8 4 WSW 1012,8 0 0,0
10.11.2019 07:00:00 3,8 3,5 1,9 5,8 8,1 11,3 4 2 8 4 SSW 1012,5 0 0,0
10.11.2019 06:00:00 3,9 3,5 0,6 5,8 8,2 11,3 4 2 9 5 S 1012,0 0 0,0
10.11.2019 05:00:00 4,0 3,4 -0,2 6,1 8,3 11,3 2 1 6 4 SSW 1011,5 0 0,0
10.11.2019 04:00:00 5,0 4,3 2,3 6,6 8,4 11,3 4 2 10 5 SSW 1011,0 0 0,0
10.11.2019 03:00:00 5,3 4,5 4,2 6,7 8,4 11,3 5 3 9 5 SW 1010,6 0 0,0
10.11.2019 02:00:00 5,1 4,5 4,1 6,6 8,5 11,3 3 1 7 4 SSW 1010,5 0 0,0
10.11.2019 01:00:00 5,0 4,4 3,4 6,5 8,6 11,3 4 2 8 4 S 1010,3 0 0,0
10.11.2019 00:00:00 4,8 4,4 2,1 6,7 8,7 11,3 2 1 7 4 S 1010,2 0 0,0
09.11.2019 23:00:00 4,8 4,4 3,1 6,6 8,8 11,3 4 2 7 4 S 1009,9 0 0,0
09.11.2019 22:00:00 4,9 4,4 -0,2 7,0 8,9 11,3 5 3 10 5 SSW 1009,8 0 0,0
09.11.2019 21:00:00 5,6 5,0 3,1 7,5 9,0 11,3 7 4 13 7 SW 1009,5 0 0,0
09.11.2019 20:00:00 6,5 5,5 5,2 7,9 9,1 11,3 8 4 16 9 SW 1009,0 0 0,0
09.11.2019 19:00:00 6,9 5,7 6,2 8,0 9,1 11,3 10 5 17 9 WSW 1008,9 0 0,0
09.11.2019 18:00:00 6,9 5,9 6,3 8,1 9,1 11,3 10 5 19 10 WSW 1008,6 0 0,0
09.11.2019 17:00:00 6,8 5,6 6,2 8,2 9,2 11,3 12 7 26 14 W 1008,2 0 0,0
09.11.2019 16:00:00 6,7 5,6 6,2 8,4 9,2 11,4 15 8 29 16 W 1007,6 0 0,0
09.11.2019 15:00:00 6,9 6,0 6,5 8,5 9,2 11,4 18 10 29 16 W 1006,8 0 0,2
09.11.2019 14:00:00 7,2 6,4 6,9 8,7 9,2 11,4 18 10 25 13 W 1006,3 0 0,1
09.11.2019 13:00:00 7,5 6,9 7,2 8,7 9,2 11,4 14 8 26 14 WNW 1006,2 0 0,0
09.11.2019 12:00:00 7,3 6,8 7,2 8,7 9,2 11,4 14 8 22 12 W 1005,8 0 0,0
09.11.2019 11:00:00 7,5 6,8 7,5 8,7 9,2 11,4 14 8 23 13 W 1005,8 0 0,0
09.11.2019 10:00:00 7,5 6,9 7,5 8,6 9,1 11,4 17 9 29 15 WNW 1005,6 0 0,0
09.11.2019 09:00:00 7,7 7,2 7,7 8,5 9,1 11,4 12 7 18 10 W 1005,5 0 0,0
09.11.2019 08:00:00 7,6 7,1 7,4 8,5 9,1 11,4 11 6 16 9 W 1005,2 0 0,0
09.11.2019 07:00:00 7,6 7,2 7,4 8,5 9,1 11,4 11 6 16 9 WNW 1004,7 0 0,0
09.11.2019 06:00:00 7,7 7,3 7,6 8,5 9,1 11,4 7 4 10 5 W 1005,0 0 0,0
09.11.2019 05:00:00 7,7 7,3 7,5 8,5 9,1 11,4 7 4 9 5 NNW 1004,2 0 0,0
09.11.2019 04:00:00 7,6 7,2 7,4 8,5 9,1 11,4 5 3 8 5 N 1004,6 0 0,0
09.11.2019 03:00:00 7,7 7,1 7,4 8,5 9,1 11,4 6 3 10 6 N 1004,6 0 0,0
09.11.2019 02:00:00 7,7 7,1 7,4 8,4 9,1 11,4 6 3 15 8 N 1005,0 0 0,0
09.11.2019 01:00:00 7,6 7,0 7,3 8,4 9,1 11,4 9 5 17 9 NNE 1005,0 0 0,0
09.11.2019 00:00:00 7,6 7,0 7,3 8,4 9,1 11,4 12 6 17 9 NNE 1005,1 0 0,6
08.11.2019 23:00:00 7,6 6,9 7,2 8,4 9,2 11,4 11 6 17 9 N 1005,6 0 0,4
08.11.2019 22:00:00 7,7 6,8 7,3 8,4 9,2 11,4 11 6 18 10 N 1005,9 0 0,0
08.11.2019 21:00:00 7,8 6,9 7,2 8,4 9,2 11,4 13 7 21 11 NNE 1005,9 0 0,3
08.11.2019 20:00:00 8,1 6,7 7,4 8,4 9,2 11,4 14 8 25 14 NNE 1005,9 0 0,0
08.11.2019 19:00:00 8,4 6,7 7,6 8,5 9,2 11,4 17 9 25 14 NE 1006,3 0 0,0
08.11.2019 18:00:00 8,5 6,7 7,5 8,6 9,3 11,4 16 8 24 13 NNE 1006,2 0 0,0
08.11.2019 17:00:00 8,6 6,3 7,6 8,9 9,3 11,4 13 7 18 10 NNE 1006,8 0 0,0
08.11.2019 16:00:00 8,9 6,2 7,4 9,1 9,2 11,5 12 6 23 13 NE 1006,8 0 0,0
08.11.2019 15:00:00 9,3 6,6 8,5 9,4 9,2 11,5 13 7 20 11 NE 1006,7 0 0,0
08.11.2019 14:00:00 9,6 6,5 9,2 9,7 9,0 11,5 12 6 16 8 ENE 1007,4 0 0,0
08.11.2019 13:00:00 10,0 6,2 10,7 9,8 8,8 11,5 10 5 15 8 ENE 1007,7 0 0,0
08.11.2019 12:00:00 9,3 5,6 10,1 9,3 8,6 11,5 11 6 16 8 ENE 1008,1 12 0,0
08.11.2019 11:00:00 8,5 6,4 9,9 8,2 8,5 11,5 5 3 7 4 ENE 1008,5 16 0,0
08.11.2019 10:00:00 6,8 5,6 6,9 7,1 8,5 11,5 3 1 8 5 ESE 1009,1 0 0,0
08.11.2019 09:00:00 5,8 5,2 5,7 6,4 8,5 11,5 4 2 8 4 ESE 1008,6 6 0,0
08.11.2019 08:00:00 2,8 2,5 0,5 6,1 8,7 11,5 2 1 4 2 N 1008,6 0 0,0
08.11.2019 07:00:00 3,3 2,1 -0,1 6,4 8,8 11,5 3 1 13 7 ESE 1007,8 0 0,0
08.11.2019 06:00:00 5,0 4,0 2,1 6,6 8,9 11,5 7 4 11 6 SSE 1007,5 0 0,0
08.11.2019 05:00:00 4,8 3,4 -0,2 6,9 9,1 11,5 3 1 6 3 SW 1007,4 0 0,0
08.11.2019 04:00:00 6,0 4,5 2,5 7,3 9,2 11,5 4 2 9 5 S 1007,0 0 0,0
08.11.2019 03:00:00 6,2 4,6 3,9 7,5 9,3 11,5 5 3 14 7 S 1006,8 0 0,0
08.11.2019 02:00:00 6,9 4,8 4,6 7,8 9,4 11,5 7 4 14 8 S 1006,7 0 0,0
08.11.2019 01:00:00 7,4 5,0 5,3 8,1 9,4 11,5 9 5 16 9 S 1005,7 0 0,0
08.11.2019 00:00:00 8,2 5,2 6,9 8,3 9,5 11,5 9 5 17 9 S 1005,4 0 0,0
07.11.2019 23:00:00 8,3 5,2 6,9 8,3 9,5 11,5 11 6 18 10 SSE 1005,1 0 0,0
07.11.2019 22:00:00 8,1 5,3 7,0 8,3 9,6 11,5 10 6 19 11 SSE 1005,0 0 0,0
07.11.2019 21:00:00 8,4 5,6 6,7 8,5 9,7 11,5 11 6 16 9 SE 1004,6 0 0,0
07.11.2019 20:00:00 9,0 5,8 7,0 8,8 9,8 11,5 10 6 19 11 S 1004,5 0 0,0
07.11.2019 19:00:00 8,7 6,4 6,5 8,9 9,9 11,5 6 4 12 6 ESE 1004,0 0 0,0
07.11.2019 18:00:00 9,1 6,7 6,8 9,2 10,0 11,5 10 5 14 8 ESE 1003,7 0 0,0
07.11.2019 17:00:00 9,9 6,6 6,7 9,8 10,0 11,5 8 4 18 10 SE 1003,7 0 0,0
07.11.2019 16:00:00 11,0 7,4 9,5 10,4 9,9 11,5 9 5 21 11 SSE 1003,4 1 0,0
07.11.2019 15:00:00 11,0 7,4 10,0 10,7 9,8 11,5 11 6 16 9 SE 1003,3 0 0,0
07.11.2019 14:00:00 10,9 7,6 10,2 11,0 9,6 11,5 8 4 17 9 SSE 1003,0 14 0,0
07.11.2019 13:00:00 10,6 7,3 10,4 10,7 9,4 11,5 10 5 16 9 SSW 1003,1 3 0,0
07.11.2019 12:00:00 10,7 7,4 11,6 10,3 9,2 11,5 9 5 17 9 SSE 1003,2 32 0,0
07.11.2019 11:00:00 9,3 7,6 9,7 9,1 9,1 11,5 6 4 13 7 S 1003,5 1 0,0
07.11.2019 10:00:00 7,7 6,9 8,0 8,3 9,1 11,5 6 3 15 8 SSE 1003,6 0 0,0
07.11.2019 09:00:00 7,2 6,5 7,1 8,1 9,1 11,5 9 5 14 8 SE 1003,6 0 0,0
07.11.2019 08:00:00 7,0 6,5 6,7 8,0 9,1 11,5 8 5 13 7 SSE 1003,6 0 0,0
07.11.2019 07:00:00 6,7 6,3 6,5 7,9 9,1 11,5 9 5 12 7 SSE 1003,2 0 0,0
07.11.2019 06:00:00 6,3 6,0 6,1 7,9 9,2 11,5 3 2 14 8 S 1003,2 0 0,0
07.11.2019 05:00:00 6,0 5,8 5,9 7,8 9,2 11,5 7 4 11 6 SSE 1003,3 0 0,0
07.11.2019 04:00:00 6,1 5,8 5,6 7,8 9,3 11,5 4 2 9 5 S 1003,5 0 0,0
07.11.2019 03:00:00 6,3 5,9 5,0 7,9 9,3 11,5 4 2 9 5 S 1003,6 0 0,0
07.11.2019 02:00:00 6,4 5,9 5,8 8,0 9,4 11,5 6 3 12 7 S 1003,5 0 0,0
07.11.2019 01:00:00 6,2 5,8 5,5 7,9 9,5 11,5 6 4 13 7 SW 1003,8 0 0,0
07.11.2019 00:00:00 6,4 5,9 4,9 8,2 9,6 11,5 9 5 15 8 SW 1003,7 0 0,0
06.11.2019 23:00:00 7,0 6,2 5,3 8,5 9,7 11,5 8 4 13 7 SW 1003,7 0 0,0
06.11.2019 22:00:00 7,6 6,5 6,7 8,8 9,7 11,5 9 5 15 8 SW 1003,4 0 0,0
06.11.2019 21:00:00 7,8 6,5 7,2 9,0 9,7 11,5 12 6 19 10 WNW 1003,0 0 0,1
06.11.2019 20:00:00 8,2 7,5 7,8 9,0 9,8 11,5 7 4 11 6 SW 1002,5 0 0,0
06.11.2019 19:00:00 8,2 7,3 7,4 9,1 9,8 11,5 6 4 9 5 WSW 1002,3 0 0,0
06.11.2019 18:00:00 8,3 7,2 7,5 9,2 9,8 11,5 7 4 10 5 WSW 1002,0 0 0,0
06.11.2019 17:00:00 8,3 6,8 7,4 9,4 9,8 11,5 6 3 13 7 WSW 1001,5 0 0,0

tt = temperature
td = dewpoint
tt 5cm = temperature 5cm
tt -5cm = temperature -5cm
tt -20cm = temperature -20cm
tt -100cm = temperature -100cm
ff = wind speed
fx = gusts
dd = wind direction
ppp = reduced air pressure
sd = sunshine duration
rr = precipitation

Next stations